Time;durP1;ratioP1;P1;durP2;ratioP2;P2;SDS_P1;SDS_P2;PMS_P1;PMS_P2;Temp;Humidity;BMP_temperature;BMP_pressure;BME280_temperature;BME280_humidity;BME280_pressure;Samples;Min_cycle;Max_cycle;Signal;HPM_P1;HPM_P2
2022/11/26 00:01:13;;;;;;;133.80;50.45;;;;;;;4.37;100.00;102494.41;5052254;28;20039;-49
2022/11/26 00:03:38;;;;;;;124.20;46.95;;;;;;;4.40;100.00;102492.09;5052402;28;20056;-49
2022/11/26 00:06:04;;;;;;;129.30;47.97;;;;;;;4.41;100.00;102493.88;5051877;28;20049;-47
2022/11/26 00:08:33;;;;;;;127.90;47.92;;;;;;;4.38;100.00;102493.66;5052408;28;20029;-46
2022/11/26 00:10:59;;;;;;;124.40;48.90;;;;;;;4.38;100.00;102494.53;5052784;28;20025;-48
2022/11/26 00:13:27;;;;;;;121.03;46.85;;;;;;;4.33;100.00;102503.47;5051875;28;20100;-48
2022/11/26 00:15:54;;;;;;;122.28;45.75;;;;;;;4.29;100.00;102504.88;5052419;28;20025;-48
2022/11/26 00:18:22;;;;;;;111.75;43.95;;;;;;;4.18;100.00;102505.66;5052464;28;20479;-48
2022/11/26 00:20:49;;;;;;;;;;;;;;;4.28;100.00;102513.28;5051750;28;20486;-49
2022/11/26 00:23:23;;;;;;;127.38;44.85;;;;;;;4.23;100.00;102509.47;5055447;28;20257;-48
2022/11/26 00:25:52;;;;;;;117.60;46.50;;;;;;;4.17;100.00;102511.53;5056168;28;20376;-49
2022/11/26 00:28:26;;;;;;;124.70;49.70;;;;;;;4.19;100.00;102512.53;5055533;28;20480;-48
2022/11/26 00:30:54;;;;;;;118.00;47.00;;;;;;;4.20;100.00;102514.34;5056090;28;20131;-48
2022/11/26 00:33:20;;;;;;;133.05;47.10;;;;;;;4.19;100.00;102515.09;5056077;28;20029;-49
2022/11/26 00:35:47;;;;;;;136.00;47.72;;;;;;;4.18;100.00;102513.31;5055764;28;20032;-47
2022/11/26 00:38:17;;;;;;;141.98;49.60;;;;;;;4.16;100.00;102512.31;5056454;28;20074;-48
2022/11/26 00:40:43;;;;;;;121.47;46.08;;;;;;;4.12;100.00;102507.72;5056007;28;20035;-48
2022/11/26 00:43:12;;;;;;;121.40;47.35;;;;;;;4.09;100.00;102512.56;5055626;28;20384;-48
2022/11/26 00:45:38;;;;;;;127.70;47.45;;;;;;;4.09;100.00;102504.91;5055904;28;20029;-49
2022/11/26 00:48:03;;;;;;;118.75;47.83;;;;;;;4.09;100.00;102510.00;5055793;28;20021;-48
2022/11/26 00:50:36;;;;;;;128.75;48.58;;;;;;;4.07;100.00;102511.56;5055353;28;20029;-49
2022/11/26 00:53:02;;;;;;;132.60;49.17;;;;;;;4.04;100.00;102512.19;5056175;28;20033;-46
2022/11/26 00:55:33;;;;;;;117.25;47.05;;;;;;;4.01;100.00;102511.91;5055179;28;20484;-47
2022/11/26 00:57:59;;;;;;;125.95;46.97;;;;;;;3.99;100.00;102508.38;5055903;28;20087;-48
2022/11/26 01:00:28;;;;;;;120.18;47.40;;;;;;;3.98;100.00;102520.97;5055794;28;20132;-48
2022/11/26 01:02:54;;;;;;;134.23;48.55;;;;;;;3.97;100.00;102519.22;5054580;28;20029;-49
2022/11/26 01:05:20;;;;;;;128.80;49.47;;;;;;;3.99;100.00;102522.75;5055633;28;20029;-48
2022/11/26 01:07:46;;;;;;;135.10;46.63;;;;;;;3.93;100.00;102518.94;5055271;28;20460;-47
2022/11/26 01:10:23;;;;;;;130.52;48.35;;;;;;;3.96;100.00;102523.41;5054831;28;20033;-47
2022/11/26 01:12:50;;;;;;;138.18;48.38;;;;;;;3.90;100.00;102518.69;5055230;28;20395;-44
2022/11/26 01:15:18;;;;;;;130.82;49.50;;;;;;;3.94;100.00;102525.81;5055217;28;20068;-45
2022/11/26 01:17:43;;;;;;;130.27;50.13;;;;;;;3.90;100.00;102526.34;5054812;28;20025;-45
2022/11/26 01:20:25;;;;;;;144.32;52.03;;;;;;;3.93;100.00;102524.03;5055387;28;20040;-47
2022/11/26 01:22:51;;;;;;;126.85;48.22;;;;;;;3.88;100.00;102515.09;5054832;28;20040;-49
2022/11/26 01:25:17;;;;;;;126.68;49.67;;;;;;;3.88;100.00;102520.22;5054839;28;20021;-48
2022/11/26 01:27:43;;;;;;;125.35;47.88;;;;;;;3.84;100.00;102515.63;5054983;28;20158;-48
2022/11/26 01:30:26;;;;;;;121.38;48.65;;;;;;;3.83;100.00;102516.38;5055333;28;20021;-48
2022/11/26 01:32:51;;;;;;;124.25;49.05;;;;;;;3.81;100.00;102510.28;5054615;28;20029;-49
2022/11/26 01:35:18;;;;;;;137.18;47.97;;;;;;;3.76;100.00;102512.44;5055230;28;20354;-48
2022/11/26 01:37:44;;;;;;;146.07;52.95;;;;;;;3.81;100.00;102517.00;5054105;28;20427;-47
2022/11/26 01:40:25;;;;;;;129.73;51.10;;;;;;;3.74;100.00;102523.25;5054950;28;20021;-48
2022/11/26 01:43:21;;;;;;;122.35;50.65;;;;;;;3.72;100.00;102527.31;5054920;28;20080;-48
2022/11/26 01:45:46;;;;;;;131.95;50.80;;;;;;;3.70;100.00;102521.22;5054112;28;20468;-49
2022/11/26 01:48:21;;;;;;;118.35;48.80;;;;;;;3.66;100.00;102526.84;5054918;28;20040;-48
2022/11/26 01:51:02;;;;;;;127.70;53.33;;;;;;;3.66;100.00;102534.47;5054269;28;20077;-48
2022/11/26 01:53:42;;;;;;;140.00;52.78;;;;;;;3.61;100.00;102540.06;5054214;28;20479;-48
2022/11/26 01:56:17;;;;;;;131.10;49.75;;;;;;;3.59;100.00;102536.50;5054794;28;20476;-48
2022/11/26 01:58:47;;;;;;;135.13;53.55;;;;;;;3.56;100.00;102548.09;5053437;28;20078;-48
2022/11/26 02:01:13;;;;;;;130.75;52.92;;;;;;;3.60;100.00;102529.72;5054615;28;20388;-49
2022/11/26 02:04:16;;;;;;;143.23;54.30;;;;;;;3.59;100.00;102533.94;5054580;28;20485;-46
2022/11/26 02:06:43;;;;;;;140.00;55.33;;;;;;;3.51;100.00;102542.63;5049281;28;20492;-48
2022/11/26 02:09:10;;;;;;;145.85;55.38;;;;;;;3.55;100.00;102543.75;5054365;28;20112;-47
2022/11/26 02:11:36;;;;;;;148.68;56.60;;;;;;;3.47;100.00;102540.53;5053799;28;20403;-48
2022/11/26 02:14:06;;;;;;;146.98;57.33;;;;;;;3.45;100.00;102550.63;5054130;28;20077;-47
2022/11/26 02:16:49;;;;;;;145.43;54.85;;;;;;;3.45;100.00;102558.25;5054447;28;20108;-45
2022/11/26 02:19:44;;;;;;;156.30;58.35;;;;;;;3.44;100.00;102559.00;5054315;28;20025;-47
2022/11/26 02:22:45;;;;;;;161.85;58.38;;;;;;;3.42;100.00;102562.19;5054566;28;20044;-48
2022/11/26 02:25:32;;;;;;;140.65;57.38;;;;;;;3.41;100.00;102568.09;5054403;28;20029;-48
2022/11/26 02:28:03;;;;;;;146.73;58.23;;;;;;;3.37;100.00;102571.09;5053623;28;20053;-48
2022/11/26 02:30:33;;;;;;;169.73;59.90;;;;;;;3.39;100.00;102577.22;5054060;28;20623;-48
2022/11/26 02:33:10;;;;;;;150.32;59.75;;;;;;;3.35;100.00;102582.84;5054148;28;20067;-48
2022/11/26 02:35:42;;;;;;;140.45;57.90;;;;;;;3.37;100.00;102571.09;5053219;28;20029;-49
2022/11/26 02:38:15;;;;;;;156.50;60.13;;;;;;;3.36;100.00;102569.34;5054064;28;20024;-47
2022/11/26 02:40:41;;;;;;;141.98;58.03;;;;;;;3.31;100.00;102562.94;5053310;28;20086;-49
2022/11/26 02:43:06;;;;;;;154.77;59.35;;;;;;;3.29;100.00;102556.06;5053509;28;20033;-48
2022/11/26 02:45:35;;;;;;;154.45;59.90;;;;;;;3.28;100.00;102559.34;5052730;28;20079;-44
2022/11/26 02:48:03;;;;;;;147.68;61.15;;;;;;;3.31;100.00;102562.94;5053065;28;20029;-48
2022/11/26 02:50:35;;;;;;;;;;;;;;;3.35;100.00;102567.53;5054449;28;20047;-44
2022/11/26 02:53:02;;;;;;;157.00;58.33;;;;;;;3.29;100.00;102567.88;5053669;28;19908;-44
2022/11/26 02:55:32;;;;;;;150.73;59.63;;;;;;;3.30;100.00;102572.22;5053100;28;20029;-45
2022/11/26 02:57:58;;;;;;;156.05;61.17;;;;;;;3.28;100.00;102572.09;5053820;28;20020;-47
2022/11/26 03:00:24;;;;;;;160.40;61.47;;;;;;;3.28;100.00;102568.66;5053289;28;20389;-51
2022/11/26 03:03:28;;;;;;;156.73;59.50;;;;;;;3.30;100.00;102572.22;5052506;28;20434;-47
2022/11/26 03:05:57;;;;;;;154.40;61.58;;;;;;;3.32;100.00;102574.91;5051813;28;20108;-47
2022/11/26 03:08:24;;;;;;;148.20;60.75;;;;;;;3.29;100.00;102576.44;5053123;28;20384;-48
2022/11/26 03:10:49;;;;;;;161.80;59.73;;;;;;;3.24;100.00;102581.88;5052747;28;20033;-47
2022/11/26 03:13:15;;;;;;;156.70;59.40;;;;;;;3.21;100.00;102590.16;5053351;28;20420;-48
2022/11/26 03:15:40;;;;;;;148.80;58.60;;;;;;;3.21;100.00;102591.81;5052761;28;20039;-46
2022/11/26 03:18:05;;;;;;;148.13;58.15;;;;;;;3.19;100.00;102596.78;5052635;28;20040;-48
2022/11/26 03:20:31;;;;;;;152.02;60.50;;;;;;;3.20;100.00;102596.03;5053091;28;20021;-47
2022/11/26 03:22:56;;;;;;;147.90;58.72;;;;;;;3.18;100.00;102600.09;5052487;28;20094;-48
2022/11/26 03:25:21;;;;;;;163.20;59.92;;;;;;;3.18;100.00;102605.19;5053259;28;20108;-48
2022/11/26 03:27:46;;;;;;;162.45;61.55;;;;;;;3.25;100.00;102599.88;5052847;28;20100;-47
2022/11/26 03:30:12;;;;;;;159.05;58.38;;;;;;;3.21;100.00;102597.78;5052296;28;20422;-48
2022/11/26 03:32:37;;;;;;;153.38;60.53;;;;;;;3.24;100.00;102604.81;5052731;28;20036;-47
2022/11/26 03:35:03;;;;;;;154.20;58.60;;;;;;;3.23;100.00;102605.59;5053224;28;20059;-47
2022/11/26 03:37:28;;;;;;;166.95;59.35;;;;;;;3.24;100.00;102613.38;5052102;28;20036;-46
2022/11/26 03:39:54;;;;;;;181.82;62.38;;;;;;;3.25;100.00;102609.16;5052589;28;20028;-47
2022/11/26 03:42:19;;;;;;;160.73;60.47;;;;;;;3.27;100.00;102613.63;5052884;28;20039;-48
2022/11/26 03:44:44;;;;;;;160.32;60.00;;;;;;;3.26;100.00;102609.28;5051837;28;20086;-47
2022/11/26 03:47:09;;;;;;;151.07;57.28;;;;;;;3.25;100.00;102607.53;5052645;28;20021;-48
2022/11/26 03:49:35;;;;;;;160.48;58.97;;;;;;;3.28;100.00;102610.31;5052572;28;20025;-47
2022/11/26 03:52:00;;;;;;;152.20;59.00;;;;;;;3.28;100.00;102612.88;5052034;28;20029;-47
2022/11/26 03:54:26;;;;;;;152.45;56.15;;;;;;;3.24;100.00;102613.38;5052687;28;20460;-48
2022/11/26 03:56:51;;;;;;;151.55;54.58;;;;;;;3.26;100.00;102618.59;5052082;28;20037;-49
2022/11/26 03:59:16;;;;;;;146.88;56.58;;;;;;;3.22;100.00;102612.31;5052034;28;20167;-48
2022/11/26 04:01:41;;;;;;;161.57;55.25;;;;;;;3.22;100.00;102608.91;5052374;28;20041;-47
2022/11/26 04:04:07;;;;;;;154.65;55.83;;;;;;;3.23;100.00;102613.25;5052635;28;20021;-48
2022/11/26 04:06:32;;;;;;;155.30;55.03;;;;;;;3.16;100.00;102609.22;5051912;28;20021;-45
2022/11/26 04:08:58;;;;;;;147.63;55.38;;;;;;;3.16;100.00;102616.88;5052644;28;20412;-47
2022/11/26 04:11:23;;;;;;;174.48;55.53;;;;;;;3.15;100.00;102626.94;5052492;28;20025;-46
2022/11/26 04:13:48;;;;;;;142.07;54.40;;;;;;;3.15;100.00;102635.50;5051707;28;20079;-47
2022/11/26 04:16:14;;;;;;;166.23;57.50;;;;;;;3.12;100.00;102632.66;5052601;28;20115;-48
2022/11/26 04:18:39;;;;;;;152.25;54.83;;;;;;;3.19;100.00;102635.00;5051825;28;20488;-48
2022/11/26 04:21:06;;;;;;;154.20;56.00;;;;;;;3.17;100.00;102636.50;5052077;28;20040;-46
2022/11/26 04:23:32;;;;;;;158.88;56.45;;;;;;;3.11;100.00;102635.97;5052315;28;20055;-45
2022/11/26 04:25:57;;;;;;;146.85;53.70;;;;;;;3.06;100.00;102632.09;5052142;28;20035;-48
2022/11/26 04:28:22;;;;;;;177.18;55.38;;;;;;;3.15;100.00;102648.25;5051806;28;20068;-43
2022/11/26 04:30:48;;;;;;;142.88;53.45;;;;;;;3.08;100.00;102641.69;5052141;28;20017;-48
2022/11/26 04:33:13;;;;;;;147.48;52.63;;;;;;;3.04;100.00;102639.63;5052085;28;20098;-43
2022/11/26 04:35:38;;;;;;;144.63;52.10;;;;;;;3.07;100.00;102639.91;5051898;28;20071;-47
2022/11/26 04:38:04;;;;;;;150.88;55.25;;;;;;;3.12;100.00;102633.56;5052397;28;20116;-46
2022/11/26 04:40:29;;;;;;;155.63;54.47;;;;;;;3.18;100.00;102633.22;5051622;28;20025;-48
2022/11/26 04:42:54;;;;;;;159.10;53.20;;;;;;;3.16;100.00;102637.25;5052053;28;20079;-48
2022/11/26 04:45:20;;;;;;;167.45;56.15;;;;;;;3.16;100.00;102641.47;5052218;28;20041;-49
2022/11/26 04:47:45;;;;;;;155.90;54.78;;;;;;;3.16;100.00;102633.81;5051027;28;20029;-47
2022/11/26 04:50:11;;;;;;;166.63;53.15;;;;;;;3.17;100.00;102636.50;5052438;28;20029;-48
2022/11/26 04:52:36;;;;;;;154.07;53.10;;;;;;;3.17;100.00;102635.63;5051804;28;20040;-49
2022/11/26 04:55:02;;;;;;;150.15;51.70;;;;;;;3.13;100.00;102652.28;5051503;28;20033;-48
2022/11/26 04:57:27;;;;;;;159.48;52.63;;;;;;;3.18;100.00;102648.50;5052024;28;20033;-47
2022/11/26 04:59:52;;;;;;;157.88;52.17;;;;;;;3.15;100.00;102648.25;5051449;28;20041;-48
2022/11/26 05:02:18;;;;;;;138.82;52.53;;;;;;;3.17;100.00;102644.16;5051612;28;20025;-48
2022/11/26 05:04:43;;;;;;;162.25;53.15;;;;;;;3.17;100.00;102640.72;5051973;28;20362;-48
2022/11/26 05:07:08;;;;;;;150.35;52.20;;;;;;;3.15;100.00;102648.25;5052007;28;20028;-48
2022/11/26 05:09:34;;;;;;;150.63;53.72;;;;;;;3.16;100.00;102639.81;5054340;28;20418;-47
2022/11/26 05:11:59;;;;;;;153.38;53.75;;;;;;;3.21;100.00;102653.84;5056013;28;20207;-48
2022/11/26 05:14:24;;;;;;;158.18;54.03;;;;;;;3.20;100.00;102652.09;5055547;28;20465;-47
2022/11/26 05:16:50;;;;;;;142.77;48.95;;;;;;;3.12;100.00;102660.69;5054726;28;20031;-48
2022/11/26 05:19:15;;;;;;;146.18;49.35;;;;;;;3.09;100.00;102662.97;5055432;28;20464;-48
2022/11/26 05:21:40;;;;;;;148.38;49.53;;;;;;;3.06;100.00;102660.13;5055135;28;20032;-48
2022/11/26 05:24:06;;;;;;;150.90;49.05;;;;;;;3.04;100.00;102660.00;5054952;28;20066;-48
2022/11/26 05:26:31;;;;;;;164.63;48.95;;;;;;;3.01;100.00;102652.09;5055084;28;20025;-44
2022/11/26 05:28:57;;;;;;;140.10;48.00;;;;;;;2.99;100.00;102660.34;5054916;28;20060;-48
2022/11/26 05:31:22;;;;;;;135.50;47.17;;;;;;;2.97;100.00;102655.13;5054748;28;20083;-47
2022/11/26 05:33:47;;;;;;;152.07;49.33;;;;;;;3.00;100.00;102657.94;5054953;28;20025;-47
2022/11/26 05:36:12;;;;;;;148.98;48.72;;;;;;;2.95;100.00;102660.06;5055116;28;20017;-46
2022/11/26 05:38:38;;;;;;;153.25;49.75;;;;;;;2.96;100.00;102656.75;5054392;28;20025;-49
2022/11/26 05:41:03;;;;;;;161.73;49.97;;;;;;;2.96;100.00;102659.31;5055086;28;20025;-47
2022/11/26 05:43:28;;;;;;;152.40;48.72;;;;;;;2.96;100.00;102663.53;5054824;28;20029;-48
2022/11/26 05:45:53;;;;;;;143.40;49.60;;;;;;;2.99;100.00;102662.91;5054100;28;20025;-47
2022/11/26 05:48:19;;;;;;;150.27;48.78;;;;;;;2.97;100.00;102678.06;5054798;28;20538;-47
2022/11/26 05:50:44;;;;;;;156.07;49.45;;;;;;;2.96;100.00;102673.72;5053854;28;20037;-47
2022/11/26 05:53:09;;;;;;;140.68;47.67;;;;;;;2.96;100.00;102678.81;5055032;28;20461;-48
2022/11/26 05:55:34;;;;;;;155.90;47.72;;;;;;;2.97;100.00;102683.16;5054689;28;20021;-47
2022/11/26 05:58:00;;;;;;;145.30;46.20;;;;;;;2.92;100.00;102681.84;5053936;28;20036;-48
2022/11/26 06:00:26;;;;;;;145.27;47.50;;;;;;;2.95;100.00;102693.19;5054568;28;20052;-47
2022/11/26 06:02:52;;;;;;;141.32;48.45;;;;;;;3.00;100.00;102692.72;5054398;28;20045;-46
2022/11/26 06:05:18;;;;;;;147.73;46.08;;;;;;;2.93;100.00;102697.25;5053708;28;20075;-44
2022/11/26 06:07:43;;;;;;;144.52;47.25;;;;;;;2.92;100.00;102702.22;5054350;28;20083;-47
2022/11/26 06:10:09;;;;;;;139.35;47.33;;;;;;;2.92;100.00;102708.19;5054433;28;20028;-43
2022/11/26 06:12:34;;;;;;;142.70;46.92;;;;;;;2.94;100.00;102703.22;5053626;28;20100;-46
2022/11/26 06:15:00;;;;;;;153.65;49.63;;;;;;;2.97;100.00;102703.53;5054491;28;20053;-48
2022/11/26 06:17:25;;;;;;;147.70;49.00;;;;;;;2.94;100.00;102699.06;5054093;28;20468;-48
2022/11/26 06:19:51;;;;;;;144.75;47.28;;;;;;;2.89;100.00;102699.38;5053698;28;20032;-47
2022/11/26 06:22:16;;;;;;;134.32;45.78;;;;;;;2.89;100.00;102699.38;5054758;28;20025;-45
2022/11/26 06:24:42;;;;;;;157.60;46.67;;;;;;;2.90;100.00;102702.06;5053895;28;20389;-48
2022/11/26 06:27:07;;;;;;;140.35;45.90;;;;;;;2.84;100.00;102706.63;5053772;28;20385;-47
2022/11/26 06:29:32;;;;;;;146.57;45.58;;;;;;;2.88;100.00;102706.13;5053827;28;20020;-49
2022/11/26 06:31:58;;;;;;;141.52;44.53;;;;;;;2.84;100.00;102706.63;5054394;28;20029;-48
2022/11/26 06:34:23;;;;;;;149.25;46.55;;;;;;;2.84;100.00;102710.78;5053699;28;20032;-47
2022/11/26 06:36:48;;;;;;;132.32;45.20;;;;;;;2.84;100.00;102716.81;5053902;28;20381;-47
2022/11/26 06:39:14;;;;;;;141.07;46.13;;;;;;;2.89;100.00;102710.47;5053840;28;20032;-48
2022/11/26 06:41:39;;;;;;;145.23;45.80;;;;;;;2.90;100.00;102713.91;5053309;28;20024;-48
2022/11/26 06:44:04;;;;;;;151.65;43.42;;;;;;;2.87;100.00;102724.72;5054190;28;20031;-47
2022/11/26 06:46:32;;;;;;;139.57;43.40;;;;;;;2.83;100.00;102717.56;5053466;28;20480;-47
2022/11/26 06:49:04;;;;;;;137.30;46.75;;;;;;;2.87;100.00;102722.16;5053263;28;20044;-47
2022/11/26 06:51:30;;;;;;;153.52;45.72;;;;;;;2.83;100.00;102720.09;5053769;28;20021;-49
2022/11/26 06:53:56;;;;;;;142.45;42.83;;;;;;;2.84;100.00;102720.97;5052612;28;20372;-46
2022/11/26 06:56:22;;;;;;;144.68;46.67;;;;;;;2.88;100.00;102713.78;5053782;28;20053;-47
2022/11/26 06:58:49;;;;;;;145.40;46.60;;;;;;;2.89;100.00;102720.66;5053025;28;20060;-47
2022/11/26 07:01:17;;;;;;;141.77;43.70;;;;;;;2.86;100.00;102735.66;5052681;28;20059;-47
2022/11/26 07:03:43;;;;;;;154.73;45.33;;;;;;;2.86;100.00;102730.56;5053076;28;20431;-47
2022/11/26 07:06:23;;;;;;;142.07;44.63;;;;;;;2.80;100.00;102722.34;5053304;28;20464;-47
2022/11/26 07:08:49;;;;;;;135.90;45.30;;;;;;;2.86;100.00;102729.66;5052400;28;20025;-47
2022/11/26 07:11:15;;;;;;;152.32;44.92;;;;;;;2.86;100.00;102738.19;5053375;28;20025;-47
2022/11/26 07:13:40;;;;;;;133.07;43.63;;;;;;;2.81;100.00;102736.88;5052674;28;20538;-47
2022/11/26 07:16:06;;;;;;;133.75;42.83;;;;;;;2.84;100.00;102747.34;5052867;28;20476;-46
2022/11/26 07:18:31;;;;;;;137.43;44.72;;;;;;;2.86;100.00;102753.47;5052818;28;20029;-47
2022/11/26 07:21:03;;;;;;;143.80;45.72;;;;;;;2.87;100.00;102751.84;5052958;28;20040;-47
2022/11/26 07:23:28;;;;;;;135.88;43.55;;;;;;;2.92;100.00;102750.59;5052432;28;20472;-47
2022/11/26 07:25:53;;;;;;;152.05;44.17;;;;;;;2.92;100.00;102748.94;5052809;28;20104;-48
2022/11/26 07:28:19;;;;;;;157.32;50.10;;;;;;;2.94;100.00;102755.09;5052681;28;20087;-46
2022/11/26 07:30:44;;;;;;;137.35;48.65;;;;;;;2.96;100.00;102762.84;5051917;28;20032;-48
2022/11/26 07:33:09;;;;;;;150.23;47.10;;;;;;;2.95;100.00;102767.03;5052930;28;20025;-47
2022/11/26 07:35:36;;;;;;;166.23;48.35;;;;;;;2.96;100.00;102758.66;5052309;28;20120;-48
2022/11/26 07:38:01;;;;;;;146.57;47.67;;;;;;;2.96;100.00;102753.56;5052396;28;20036;-48
2022/11/26 07:40:26;;;;;;;160.18;50.03;;;;;;;2.97;100.00;102757.91;5052713;28;20029;-48
2022/11/26 07:42:52;;;;;;;164.18;51.00;;;;;;;2.97;100.00;102757.91;5052292;28;20029;-47
2022/11/26 07:45:17;;;;;;;139.35;49.67;;;;;;;2.97;100.00;102763.00;5052243;28;20025;-47
2022/11/26 07:47:42;;;;;;;164.90;51.38;;;;;;;3.00;100.00;102764.03;5052628;28;20025;-44
2022/11/26 07:50:08;;;;;;;167.27;55.20;;;;;;;3.02;100.00;102763.44;5052515;28;20032;-47
2022/11/26 07:52:33;;;;;;;148.05;53.58;;;;;;;3.04;100.00;102756.81;5051875;28;20025;-47
2022/11/26 07:54:59;;;;;;;156.82;53.42;;;;;;;3.07;100.00;102761.28;5052609;28;20028;-48
2022/11/26 07:57:24;;;;;;;175.98;55.13;;;;;;;3.08;100.00;102755.44;5051810;28;20039;-47
2022/11/26 07:59:49;;;;;;;163.75;55.20;;;;;;;3.11;100.00;102753.16;5052283;28;20040;-47
2022/11/26 08:02:15;;;;;;;169.50;56.50;;;;;;;3.15;100.00;102752.69;5052569;28;20108;-47
2022/11/26 08:04:41;;;;;;;178.43;57.72;;;;;;;3.20;100.00;102751.47;5051881;28;20047;-47
2022/11/26 08:07:06;;;;;;;148.13;54.95;;;;;;;3.24;100.00;102758.63;5052506;28;20411;-48
2022/11/26 08:09:31;;;;;;;164.75;58.17;;;;;;;3.27;100.00;102755.44;5051811;28;20067;-45
2022/11/26 08:11:57;;;;;;;170.80;59.55;;;;;;;3.31;100.00;102757.50;5051904;28;20100;-48
2022/11/26 08:14:22;;;;;;;179.80;59.53;;;;;;;3.37;100.00;102763.16;5052661;28;20047;-47
2022/11/26 08:16:47;;;;;;;164.93;59.35;;;;;;;3.42;100.00;102761.00;5052042;28;20036;-47
2022/11/26 08:19:13;;;;;;;162.35;60.60;;;;;;;3.47;100.00;102769.97;5051920;28;20502;-48
2022/11/26 08:21:38;;;;;;;149.77;58.30;;;;;;;3.52;100.00;102776.38;5052228;28;20021;-48
2022/11/26 08:24:06;;;;;;;165.60;59.80;;;;;;;3.56;100.00;102765.69;5052187;28;20024;-48
2022/11/26 08:26:31;;;;;;;166.60;60.33;;;;;;;3.61;100.00;102774.63;5051531;28;20346;-44
2022/11/26 08:28:58;;;;;;;148.30;57.63;;;;;;;3.66;100.00;102779.28;5052356;28;20025;-47
2022/11/26 08:31:26;;;;;;;173.23;57.67;;;;;;;3.70;100.00;102773.69;5052190;28;20036;-48
2022/11/26 08:33:51;;;;;;;154.63;56.22;;;;;;;3.73;100.00;102763.72;5051584;28;20086;-48
2022/11/26 08:36:16;;;;;;;141.32;55.28;;;;;;;3.78;100.00;102782.88;5052380;28;20021;-49
2022/11/26 08:38:42;;;;;;;153.40;57.10;;;;;;;3.83;100.00;102775.66;5051800;28;20025;-47
2022/11/26 08:41:11;;;;;;;159.75;58.90;;;;;;;3.86;100.00;102781.94;5051637;28;20029;-47
2022/11/26 08:43:37;;;;;;;168.52;55.03;;;;;;;3.88;100.00;102780.38;5053621;28;20388;-46
2022/11/26 08:46:03;;;;;;;140.88;55.60;;;;;;;3.94;100.00;102775.84;5055940;28;20036;-49
2022/11/26 08:48:30;;;;;;;159.27;53.33;;;;;;;3.96;100.00;102783.63;5055475;28;20102;-47
2022/11/26 08:51:03;;;;;;;155.38;55.80;;;;;;;4.00;100.00;102782.22;5055721;28;20108;-47
2022/11/26 08:53:30;;;;;;;150.23;55.00;;;;;;;4.04;100.00;102781.72;5055396;28;20029;-45
2022/11/26 08:56:00;;;;;;;140.38;52.22;;;;;;;4.07;100.00;102777.78;5055844;28;20107;-48
2022/11/26 08:58:25;;;;;;;143.27;50.08;;;;;;;4.10;100.00;102772.06;5055674;28;20031;-47
2022/11/26 09:00:50;;;;;;;133.63;51.40;;;;;;;4.18;100.00;102781.28;5055063;28;20488;-45
2022/11/26 09:03:15;;;;;;;148.15;52.20;;;;;;;4.24;100.00;102781.81;5055936;28;20021;-48
2022/11/26 09:05:41;;;;;;;143.73;51.05;;;;;;;4.32;100.00;102779.91;5055329;28;20036;-48
2022/11/26 09:08:06;;;;;;;136.15;49.10;;;;;;;4.35;100.00;102782.75;5055084;28;20117;-48
2022/11/26 09:10:31;;;;;;;138.52;51.10;;;;;;;4.42;100.00;102792.72;5055337;28;20029;-45
2022/11/26 09:12:56;;;;;;;139.75;48.58;;;;;;;4.42;100.00;102786.72;5055511;28;20031;-47
2022/11/26 09:15:22;;;;;;;132.30;48.08;;;;;;;4.45;100.00;102793.00;5055076;28;20029;-49
2022/11/26 09:17:47;;;;;;;150.05;50.85;;;;;;;4.51;100.00;102801.94;5055134;28;20052;-47
2022/11/26 09:20:12;;;;;;;122.65;46.65;;;;;;;4.52;100.00;102796.03;5055303;28;20075;-48
2022/11/26 09:22:37;;;;;;;135.13;45.45;;;;;;;4.56;100.00;102796.47;5054523;28;20483;-43
2022/11/26 09:25:03;;;;;;;129.88;43.40;;;;;;;4.61;100.00;102799.41;5055654;28;20116;-45
2022/11/26 09:27:28;;;;;;;144.27;48.42;;;;;;;4.70;100.00;102804.38;5055240;28;20032;-48
2022/11/26 09:29:53;;;;;;;120.82;45.60;;;;;;;4.73;100.00;102809.78;5054463;28;20060;-48
2022/11/26 09:32:19;;;;;;;143.63;50.20;;;;;;;4.77;100.00;102804.16;5055322;28;20025;-47
2022/11/26 09:34:44;;;;;;;141.45;44.55;;;;;;;4.82;100.00;102815.66;5054581;28;20388;-47
2022/11/26 09:37:09;;;;;;;134.05;45.40;;;;;;;4.95;100.00;102817.59;5054444;28;20056;-48
2022/11/26 09:39:35;;;;;;;123.55;44.08;;;;;;;4.97;100.00;102820.25;5055000;28;20064;-48
2022/11/26 09:42:06;;;;;;;125.28;43.22;;;;;;;5.04;100.00;102830.25;5055224;28;20029;-48
2022/11/26 09:44:45;;;;;;;121.70;41.28;;;;;;;5.06;100.00;102828.69;5054296;28;20082;-46
2022/11/26 09:47:16;;;;;;;133.85;42.40;;;;;;;5.11;100.00;102824.88;5054817;28;20373;-47
2022/11/26 09:50:12;;;;;;;119.18;39.63;;;;;;;5.16;100.00;102805.69;5054175;28;20119;-47
2022/11/26 09:52:43;;;;;;;119.13;39.80;;;;;;;5.17;100.00;102807.50;5054640;28;20033;-49
2022/11/26 09:55:20;;;;;;;114.72;38.95;;;;;;;5.26;100.00;102815.03;5054181;28;20472;-48
2022/11/26 09:58:04;;;;;;;128.23;39.95;;;;;;;5.31;100.00;102808.66;5053938;28;20021;-47
2022/11/26 10:00:33;;;;;;;127.97;44.65;;;;;;;5.40;100.00;102809.41;5054575;28;20053;-49
2022/11/26 10:02:59;;;;;;;118.15;40.83;;;;;;;5.42;100.00;102806.97;5054529;28;20017;-48
2022/11/26 10:05:38;;;;;;;110.40;37.53;;;;;;;5.49;100.00;102813.47;5054096;28;20032;-48
2022/11/26 10:08:20;;;;;;;120.78;37.92;;;;;;;5.53;100.00;102818.97;5054437;28;20025;-49
2022/11/26 10:10:55;;;;;;;130.70;39.10;;;;;;;5.54;100.00;102817.28;5053924;28;20025;-48
2022/11/26 10:13:44;;;;;;;103.28;36.50;;;;;;;5.57;100.00;102810.78;5054642;28;20025;-47
2022/11/26 10:16:27;;;;;;;119.72;39.38;;;;;;;5.65;100.00;102815.63;5054299;28;20029;-48
2022/11/26 10:18:59;;;;;;;110.35;37.88;;;;;;;5.65;100.00;102815.63;5053345;28;20033;-48
2022/11/26 10:21:41;;;;;;;137.57;39.22;;;;;;;5.71;100.00;102818.69;5054429;28;20017;-47
2022/11/26 10:24:42;;;;;;;121.45;39.40;;;;;;;5.82;100.00;102820.44;5054105;28;20017;-48
2022/11/26 10:27:14;;;;;;;113.40;40.03;;;;;;;5.90;100.00;102813.38;5031536;28;20030;-47
2022/11/26 10:29:42;;;;;;;133.48;42.75;;;;;;;6.09;100.00;102809.00;5049979;28;20041;-48
2022/11/26 10:32:17;;;;;;;122.68;41.40;;;;;;;6.23;100.00;102804.97;5053718;28;20025;-48
2022/11/26 10:34:54;;;;;;;117.32;36.92;;;;;;;6.28;100.00;102807.00;5053795;28;20082;-48
2022/11/26 10:37:21;;;;;;;120.55;35.13;;;;;;;6.37;100.00;102802.59;5053971;28;20036;-49
2022/11/26 10:39:47;;;;;;;111.90;36.67;;;;;;;6.51;100.00;102794.31;5053007;28;20052;-49
2022/11/26 10:42:18;;;;;;;94.88;33.00;;;;;;;6.59;100.00;102795.78;5054083;28;20457;-47
2022/11/26 10:44:44;;;;;;;110.20;35.53;;;;;;;6.73;100.00;102789.19;5053499;28;20120;-48
2022/11/26 10:47:22;;;;;;;102.25;34.40;;;;;;;6.73;100.00;102791.75;5053409;28;20484;-48
2022/11/26 10:49:49;;;;;;;93.07;34.00;;;;;;;6.74;100.00;102793.53;5053387;28;20040;-49
2022/11/26 10:52:19;;;;;;;90.43;31.67;;;;;;;6.76;100.00;102793.63;5053356;28;20032;-48
2022/11/26 10:54:44;;;;;;;102.90;29.88;;;;;;;6.84;100.00;102796.78;5052875;28;20032;-49
2022/11/26 10:57:17;;;;;;;103.43;33.17;;;;;;;6.96;100.00;102796.81;5053757;28;20021;-48
2022/11/26 10:59:42;;;;;;;106.10;31.02;;;;;;;7.00;100.00;102804.00;5052976;28;20045;-49
2022/11/26 11:02:31;;;;;;;104.67;30.77;;;;;;;7.04;100.00;102803.44;5053177;28;20039;-45
2022/11/26 11:05:01;;;;;;;87.43;30.95;;;;;;;7.07;100.00;102791.72;5053040;28;20280;-48
2022/11/26 11:07:30;;;;;;;91.97;29.70;;;;;;;7.14;100.00;102787.97;5052315;28;20597;-47